Time;durP1;ratioP1;P1;durP2;ratioP2;P2;SDS_P1;SDS_P2;PMS_P1;PMS_P2;Temp;Humidity;BMP_temperature;BMP_pressure;BME280_temperature;BME280_humidity;BME280_pressure;Samples;Min_cycle;Max_cycle;Signal;HPM_P1;HPM_P2
2023/03/02 00:01:35;;;;;;;44.10;25.60;;;4.30;99.90;;;;;;6036657;23;93075;-78
2023/03/02 00:04:04;;;;;;;39.90;23.17;;;4.30;99.90;;;;;;6011271;23;93000;-78
2023/03/02 00:06:33;;;;;;;36.15;20.55;;;4.30;99.90;;;;;;6035436;23;94869;-78
2023/03/02 00:09:03;;;;;;;45.97;25.10;;;4.20;99.90;;;;;;6036991;23;92495;-78
2023/03/02 00:11:32;;;;;;;42.17;23.65;;;4.10;99.90;;;;;;6010565;23;96141;-78
2023/03/02 00:13:59;;;;;;;43.50;23.10;;;4.20;99.90;;;;;;6011219;23;93137;-78
2023/03/02 00:16:26;;;;;;;43.97;24.85;;;4.20;99.90;;;;;;6036873;23;92766;-78
2023/03/02 00:18:53;;;;;;;42.40;23.40;;;4.30;99.90;;;;;;6059558;23;92509;-78
2023/03/02 00:21:20;;;;;;;38.65;20.23;;;4.30;99.90;;;;;;6011169;23;93378;-78
2023/03/02 00:23:47;;;;;;;49.70;24.60;;;4.40;99.90;;;;;;6011734;23;93043;-78
2023/03/02 00:26:14;;;;;;;39.40;22.08;;;4.40;99.90;;;;;;6034938;23;92477;-78
2023/03/02 00:28:41;;;;;;;47.05;25.20;;;4.30;99.90;;;;;;6011007;23;92555;-78
2023/03/02 00:31:08;;;;;;;39.10;22.40;;;4.40;99.90;;;;;;6057576;23;98288;-78
2023/03/02 00:33:35;;;;;;;43.03;23.95;;;4.40;99.90;;;;;;6010662;23;98223;-78
2023/03/02 00:36:02;;;;;;;48.40;25.88;;;4.40;99.90;;;;;;6036967;23;92585;-78
2023/03/02 00:38:29;;;;;;;42.03;24.45;;;4.40;99.90;;;;;;6011091;23;92867;-78
2023/03/02 00:40:58;;;;;;;39.35;23.20;;;4.40;99.90;;;;;;6059163;23;95899;-78
2023/03/02 00:43:26;;;;;;;38.63;23.48;;;4.40;99.90;;;;;;6010760;23;95484;-78
2023/03/02 00:45:54;;;;;;;43.28;23.40;;;4.40;99.90;;;;;;6035400;23;92507;-78
2023/03/02 00:48:22;;;;;;;38.28;23.15;;;4.40;99.90;;;;;;6037039;23;91668;-78
2023/03/02 00:50:49;;;;;;;42.72;24.30;;;4.30;99.90;;;;;;6010914;23;96017;-78
2023/03/02 00:53:16;;;;;;;40.47;23.35;;;4.30;99.90;;;;;;6034823;23;92458;-78
2023/03/02 00:55:54;;;;;;;33.60;20.67;;;4.30;99.90;;;;;;6034012;23;94944;-78
2023/03/02 00:58:22;;;;;;;39.50;23.73;;;4.30;99.90;;;;;;6035098;23;92423;-78
2023/03/02 01:00:49;;;;;;;40.72;22.80;;;4.20;99.90;;;;;;6059019;23;95779;-78
2023/03/02 01:03:16;;;;;;;37.05;20.88;;;4.20;99.90;;;;;;6059034;23;95930;-78
2023/03/02 01:05:44;;;;;;;34.97;20.98;;;4.20;99.90;;;;;;6034996;23;92479;-78
2023/03/02 01:08:11;;;;;;;33.47;19.67;;;4.20;99.90;;;;;;6035210;23;92516;-78
2023/03/02 01:10:39;;;;;;;36.80;21.65;;;4.20;99.90;;;;;;6036043;23;93034;-78
2023/03/02 01:13:06;;;;;;;38.08;22.20;;;4.20;99.90;;;;;;6059240;23;95913;-78
2023/03/02 01:15:34;;;;;;;39.03;24.00;;;4.30;99.90;;;;;;6010842;23;92433;-78
2023/03/02 01:18:00;;;;;;;35.97;19.38;;;4.30;99.90;;;;;;6010873;23;92427;-78
2023/03/02 01:20:28;;;;;;;43.20;23.15;;;4.30;99.90;;;;;;6057004;23;98331;-78
2023/03/02 01:22:55;;;;;;;35.80;20.45;;;4.30;99.90;;;;;;6058441;23;97810;-78
2023/03/02 01:25:22;;;;;;;31.80;17.70;;;4.30;99.90;;;;;;6033858;23;92461;-78
2023/03/02 01:27:49;;;;;;;34.30;21.00;;;4.20;99.90;;;;;;6010261;23;92437;-78
2023/03/02 01:30:16;;;;;;;33.55;19.70;;;4.20;99.90;;;;;;6010855;23;93187;-78
2023/03/02 01:32:44;;;;;;;35.35;20.42;;;4.20;99.90;;;;;;6034131;23;95269;-78
2023/03/02 01:35:11;;;;;;;36.00;20.73;;;4.20;99.90;;;;;;6036157;23;92334;-78
2023/03/02 01:37:38;;;;;;;36.08;21.80;;;4.20;99.90;;;;;;6059075;23;92111;-78
2023/03/02 01:40:05;;;;;;;36.75;21.25;;;4.20;99.90;;;;;;6034280;23;96086;-78
2023/03/02 01:42:38;;;;;;;35.00;19.55;;;4.20;99.90;;;;;;5986433;23;95152;-78
2023/03/02 01:45:25;;;;;;;34.00;20.50;;;4.10;99.90;;;;;;6034722;23;95250;-78
2023/03/02 01:47:52;;;;;;;30.85;17.85;;;4.00;99.90;;;;;;6010513;23;92349;-78
2023/03/02 01:50:26;;;;;;;33.00;20.00;;;3.90;99.90;;;;;;6009773;23;95943;-78
2023/03/02 01:52:56;;;;;;;37.88;20.95;;;3.90;99.90;;;;;;6057901;23;92807;-78
2023/03/02 01:55:28;;;;;;;34.05;17.15;;;3.90;99.90;;;;;;6034606;23;92404;-78
2023/03/02 01:57:56;;;;;;;35.22;19.40;;;3.80;99.90;;;;;;6034381;23;92389;-78
2023/03/02 02:00:28;;;;;;;38.20;20.05;;;3.80;99.90;;;;;;6009610;23;95692;-78
2023/03/02 02:03:07;;;;;;;33.17;18.27;;;3.80;99.90;;;;;;6034690;23;95619;-78
2023/03/02 02:05:41;;;;;;;28.60;17.08;;;3.80;99.90;;;;;;6059772;23;92515;-78
2023/03/02 02:08:08;;;;;;;31.60;18.07;;;3.70;99.90;;;;;;6060343;23;92435;-78
2023/03/02 02:10:36;;;;;;;29.88;17.70;;;3.60;99.90;;;;;;6009734;23;98408;-78
2023/03/02 02:13:03;;;;;;;32.03;18.85;;;3.70;99.90;;;;;;6011721;23;95320;-78
2023/03/02 02:15:30;;;;;;;33.65;18.85;;;3.70;99.90;;;;;;6011748;23;92355;-78
2023/03/02 02:17:56;;;;;;;39.78;20.17;;;3.70;99.90;;;;;;6037336;23;92420;-78
2023/03/02 02:20:38;;;;;;;41.40;21.92;;;3.70;99.90;;;;;;6037041;23;92387;-78
2023/03/02 02:23:32;;;;;;;34.60;18.35;;;3.80;99.90;;;;;;6037041;23;92998;-78
2023/03/02 02:26:08;;;;;;;49.95;19.92;;;3.80;99.90;;;;;;6011267;23;92337;-78
2023/03/02 02:28:49;;;;;;;34.75;17.15;;;3.70;99.90;;;;;;6060462;23;91630;-78
2023/03/02 02:31:25;;;;;;;41.92;18.05;;;3.70;99.90;;;;;;6035660;23;95815;-78
2023/03/02 02:34:00;;;;;;;47.33;20.20;;;3.70;99.90;;;;;;6059663;23;95545;-78
2023/03/02 02:36:32;;;;;;;51.55;21.27;;;3.70;99.90;;;;;;6034083;23;95276;-78
2023/03/02 02:39:06;;;;;;;65.28;20.90;;;3.70;99.90;;;;;;6060253;23;92408;-78
2023/03/02 02:41:37;;;;;;;106.57;23.35;;;3.70;99.90;;;;;;6035270;23;95655;-78
2023/03/02 02:44:05;;;;;;;67.90;23.35;;;3.70;99.90;;;;;;6060006;23;95343;-78
2023/03/02 02:46:32;;;;;;;53.13;20.10;;;3.70;99.90;;;;;;6011214;23;92378;-78
2023/03/02 02:49:02;;;;;;;60.22;22.65;;;3.70;99.90;;;;;;6059822;23;92454;-78
2023/03/02 02:51:29;;;;;;;61.47;22.17;;;3.70;99.90;;;;;;6059430;23;95809;-78
2023/03/02 02:53:59;;;;;;;53.33;20.95;;;3.80;99.90;;;;;;6037209;23;93081;-78
2023/03/02 02:56:34;;;;;;;52.90;23.17;;;3.80;99.90;;;;;;6035682;23;92420;-78
2023/03/02 02:59:24;;;;;;;63.17;22.30;;;3.80;99.90;;;;;;6036087;23;93411;-78
2023/03/02 03:01:52;;;;;;;73.40;24.38;;;3.80;99.90;;;;;;6058006;23;98343;-78
2023/03/02 03:04:27;;;;;;;84.70;24.10;;;3.70;99.90;;;;;;6010973;23;98010;-78
2023/03/02 03:06:56;;;;;;;68.57;24.13;;;3.70;99.90;;;;;;6011530;23;92462;-78
2023/03/02 03:09:23;;;;;;;73.80;24.25;;;3.70;99.90;;;;;;6035428;23;92483;-78
2023/03/02 03:11:56;;;;;;;89.10;25.13;;;3.80;99.90;;;;;;6059191;23;95889;-78
2023/03/02 03:14:34;;;;;;;95.90;24.53;;;3.80;99.90;;;;;;6059756;23;95597;-78
2023/03/02 03:17:01;;;;;;;65.43;25.05;;;3.80;99.90;;;;;;6011476;23;92495;-78
2023/03/02 03:19:31;;;;;;;96.43;27.90;;;3.70;99.90;;;;;;6011785;23;91728;-78
2023/03/02 03:22:01;;;;;;;61.17;22.67;;;3.70;99.90;;;;;;6059393;23;95553;-78
2023/03/02 03:24:34;;;;;;;119.85;26.17;;;3.70;99.90;;;;;;6034944;23;95838;-78
2023/03/02 03:27:05;;;;;;;71.68;23.13;;;3.70;99.90;;;;;;6034961;23;94890;-78
2023/03/02 03:29:37;;;;;;;81.97;24.58;;;3.70;99.90;;;;;;6036282;23;92464;-78
2023/03/02 03:32:06;;;;;;;52.53;20.95;;;3.70;99.90;;;;;;6059649;23;95288;-78
2023/03/02 03:34:39;;;;;;;77.20;25.38;;;3.60;99.90;;;;;;6011495;23;95337;-78
2023/03/02 03:37:16;;;;;;;90.28;23.65;;;3.60;99.90;;;;;;6011391;23;92509;-78
2023/03/02 03:39:44;;;;;;;98.35;22.58;;;3.60;99.90;;;;;;6011591;23;92416;-78
2023/03/02 03:42:12;;;;;;;90.07;22.48;;;3.50;99.90;;;;;;6035579;23;95474;-78
2023/03/02 03:44:39;;;;;;;107.40;23.60;;;3.50;99.90;;;;;;6059818;23;95505;-78
2023/03/02 03:47:06;;;;;;;136.95;24.42;;;3.40;99.90;;;;;;6011226;23;92453;-78
2023/03/02 03:49:34;;;;;;;127.95;25.90;;;3.40;99.90;;;;;;6035603;23;92423;-78
2023/03/02 03:52:02;;;;;;;93.78;25.73;;;3.30;99.90;;;;;;6009157;23;97562;-78
2023/03/02 03:54:30;;;;;;;110.32;27.98;;;3.30;99.90;;;;;;6059341;23;97590;-78
2023/03/02 03:56:58;;;;;;;94.85;27.33;;;3.40;99.90;;;;;;6035180;23;92471;-78
2023/03/02 03:59:25;;;;;;;80.50;26.90;;;3.40;99.90;;;;;;6011142;23;92533;-78
2023/03/02 04:01:58;;;;;;;188.52;31.10;;;3.40;99.90;;;;;;6035103;23;95517;-78
2023/03/02 04:04:34;;;;;;;103.68;25.02;;;3.40;99.90;;;;;;6012775;23;95370;-78
2023/03/02 04:07:06;;;;;;;123.05;26.58;;;3.40;99.90;;;;;;6012253;23;92406;-78
2023/03/02 04:09:36;;;;;;;132.90;26.17;;;3.40;99.90;;;;;;6011508;23;91893;-78
2023/03/02 04:12:06;;;;;;;295.20;33.95;;;3.30;99.90;;;;;;6059243;23;95637;-78
2023/03/02 04:14:34;;;;;;;121.70;25.60;;;3.30;99.90;;;;;;6011332;23;95236;-78
2023/03/02 04:17:04;;;;;;;82.20;25.55;;;3.40;99.90;;;;;;6035583;23;95059;-78
2023/03/02 04:19:34;;;;;;;106.43;26.30;;;3.30;99.90;;;;;;6011393;23;92957;-78
2023/03/02 04:22:02;;;;;;;104.85;27.30;;;3.30;99.90;;;;;;6059091;23;95608;-78
2023/03/02 04:24:31;;;;;;;91.60;25.60;;;3.30;99.90;;;;;;6036420;23;93083;-78
2023/03/02 04:27:01;;;;;;;88.65;29.48;;;3.30;99.90;;;;;;6034837;23;92423;-78
2023/03/02 04:29:31;;;;;;;101.10;29.27;;;3.30;99.90;;;;;;6034891;23;92430;-78
2023/03/02 04:31:59;;;;;;;210.15;33.60;;;3.30;99.90;;;;;;6035574;23;95106;-78
2023/03/02 04:34:28;;;;;;;104.97;29.92;;;3.30;99.90;;;;;;6011154;23;94961;-78
2023/03/02 04:36:55;;;;;;;169.00;31.20;;;3.30;99.90;;;;;;6035308;23;92516;-78
2023/03/02 04:39:22;;;;;;;246.60;34.75;;;3.30;99.90;;;;;;5987189;23;92462;-78
2023/03/02 04:41:51;;;;;;;308.63;42.78;;;3.30;99.90;;;;;;6035040;23;95514;-78
2023/03/02 04:44:19;;;;;;;101.40;26.73;;;3.30;99.90;;;;;;6036350;23;95470;-78
2023/03/02 04:46:47;;;;;;;331.88;41.95;;;3.30;99.90;;;;;;6036686;23;92379;-78
2023/03/02 04:49:16;;;;;;;140.23;30.50;;;3.20;99.90;;;;;;6036417;23;92459;-78
2023/03/02 04:51:46;;;;;;;131.98;30.92;;;3.20;99.90;;;;;;6058840;23;94688;-78
2023/03/02 04:54:22;;;;;;;128.05;32.15;;;3.20;99.90;;;;;;6010383;23;93206;-78
2023/03/02 04:56:50;;;;;;;151.80;33.78;;;3.20;99.90;;;;;;6034790;23;92464;-78
2023/03/02 04:59:21;;;;;;;135.50;32.75;;;3.20;99.90;;;;;;6036658;23;96122;-78
2023/03/02 05:01:48;;;;;;;131.52;30.48;;;3.30;99.90;;;;;;6035286;23;92482;-78
2023/03/02 05:04:15;;;;;;;259.65;37.30;;;3.30;99.90;;;;;;6034376;23;94922;-78
2023/03/02 05:06:42;;;;;;;116.32;31.33;;;3.30;99.90;;;;;;6035364;23;94958;-78
2023/03/02 05:09:10;;;;;;;178.50;33.22;;;3.40;99.90;;;;;;6011118;23;93205;-78
2023/03/02 05:11:37;;;;;;;127.97;29.45;;;3.40;99.90;;;;;;6010998;23;93104;-78
2023/03/02 05:14:06;;;;;;;126.93;29.95;;;3.30;99.90;;;;;;6036454;23;93168;-78
2023/03/02 05:16:36;;;;;;;129.95;29.75;;;3.30;99.90;;;;;;6034846;23;92410;-78
2023/03/02 05:19:06;;;;;;;93.82;25.30;;;3.20;99.90;;;;;;6058760;23;92425;-78
2023/03/02 05:21:34;;;;;;;187.70;33.38;;;3.10;99.90;;;;;;6058534;23;95696;-78
2023/03/02 05:24:02;;;;;;;90.10;22.83;;;3.10;99.90;;;;;;6010831;23;93020;-78
2023/03/02 05:26:29;;;;;;;84.05;23.70;;;3.00;99.90;;;;;;6036047;23;92394;-78
2023/03/02 05:28:56;;;;;;;58.60;19.23;;;2.90;99.90;;;;;;6010324;23;92373;-78
2023/03/02 05:31:29;;;;;;;64.47;16.55;;;2.90;99.90;;;;;;6034566;23;95648;-78
2023/03/02 05:33:56;;;;;;;76.85;18.85;;;2.80;99.90;;;;;;6036070;23;95496;-78
2023/03/02 05:36:23;;;;;;;94.90;23.80;;;2.70;99.90;;;;;;6036252;23;92347;-78
2023/03/02 05:38:50;;;;;;;133.93;26.83;;;2.70;99.90;;;;;;6010171;23;102095;-78
2023/03/02 05:41:18;;;;;;;136.57;27.02;;;2.80;99.90;;;;;;6059761;23;95842;-78
2023/03/02 05:43:45;;;;;;;123.10;24.75;;;2.80;99.90;;;;;;6011852;23;93302;-78
2023/03/02 05:46:12;;;;;;;73.38;22.42;;;2.80;99.90;;;;;;6012133;23;92427;-78
2023/03/02 05:48:41;;;;;;;130.02;23.92;;;2.80;99.90;;;;;;6060661;23;91671;-78
2023/03/02 05:51:08;;;;;;;90.57;23.15;;;2.80;99.90;;;;;;6036763;23;94101;-78
2023/03/02 05:53:35;;;;;;;173.30;30.42;;;2.80;99.90;;;;;;6037020;23;102659;-78
2023/03/02 05:56:02;;;;;;;145.57;29.75;;;2.80;99.90;;;;;;6035889;23;94693;-78
2023/03/02 05:58:30;;;;;;;183.63;33.40;;;2.80;99.90;;;;;;6035618;23;92516;-78
2023/03/02 06:00:57;;;;;;;85.57;24.98;;;2.80;99.90;;;;;;6059605;23;93207;-78
2023/03/02 06:03:24;;;;;;;111.97;26.55;;;2.80;99.90;;;;;;6059707;23;94111;-78
2023/03/02 06:05:51;;;;;;;143.30;31.02;;;2.90;99.90;;;;;;6036234;23;92457;-78
2023/03/02 06:08:20;;;;;;;143.95;28.08;;;2.90;99.90;;;;;;6011441;23;98218;-78
2023/03/02 06:10:49;;;;;;;103.47;27.73;;;2.90;99.90;;;;;;6037426;23;93309;-78
2023/03/02 06:13:16;;;;;;;136.02;29.45;;;2.90;99.90;;;;;;6011490;23;95585;-78
2023/03/02 06:15:43;;;;;;;102.75;21.67;;;2.90;99.90;;;;;;6037547;23;92615;-78
2023/03/02 06:18:11;;;;;;;81.13;24.10;;;2.90;99.90;;;;;;6059596;23;92501;-78
2023/03/02 06:20:39;;;;;;;106.78;24.42;;;2.90;99.90;;;;;;6057915;23;98287;-78
2023/03/02 06:23:06;;;;;;;219.05;32.45;;;2.80;99.90;;;;;;6011307;23;98338;-78
2023/03/02 06:25:34;;;;;;;66.65;25.02;;;2.80;99.90;;;;;;6011206;23;92436;-78
2023/03/02 06:28:01;;;;;;;84.55;22.63;;;2.80;99.90;;;;;;6036854;23;92409;-78
2023/03/02 06:30:29;;;;;;;83.80;21.63;;;2.80;99.90;;;;;;6035046;23;94214;-78
2023/03/02 06:32:55;;;;;;;91.57;25.20;;;2.80;99.90;;;;;;6036978;23;92936;-78
2023/03/02 06:35:22;;;;;;;120.13;23.33;;;2.80;99.90;;;;;;6059206;23;92342;-78
2023/03/02 06:37:50;;;;;;;68.15;21.90;;;2.80;99.90;;;;;;6036189;23;91765;-78
2023/03/02 06:40:17;;;;;;;100.15;23.48;;;2.80;99.90;;;;;;6036676;23;93386;-78
2023/03/02 06:42:44;;;;;;;82.78;23.20;;;2.80;99.90;;;;;;6059532;23;93187;-78
2023/03/02 06:45:11;;;;;;;71.43;21.77;;;2.70;99.90;;;;;;6035265;23;94742;-78
2023/03/02 06:47:38;;;;;;;143.05;28.35;;;2.80;99.90;;;;;;6059669;23;92426;-78
2023/03/02 06:50:06;;;;;;;74.47;19.77;;;2.80;99.90;;;;;;6034559;23;95629;-78
2023/03/02 06:52:34;;;;;;;57.00;19.75;;;2.80;99.90;;;;;;6036763;23;93152;-78
2023/03/02 06:55:01;;;;;;;68.05;22.27;;;2.80;99.90;;;;;;6037005;23;94020;-78
2023/03/02 06:57:32;;;;;;;99.22;25.05;;;2.80;99.90;;;;;;6059297;23;92430;-78
2023/03/02 07:00:01;;;;;;;75.18;19.50;;;2.90;99.90;;;;;;6036985;23;92383;-78
2023/03/02 07:02:28;;;;;;;91.97;23.95;;;2.90;99.90;;;;;;6059437;23;96399;-78
2023/03/02 07:04:55;;;;;;;90.47;22.55;;;2.90;99.90;;;;;;6034891;23;92484;-77
2023/03/02 07:07:22;;;;;;;85.90;21.92;;;3.00;99.90;;;;;;6059199;23;92433;-77
2023/03/02 07:09:49;;;;;;;62.25;21.02;;;3.10;99.90;;;;;;6035100;23;95772;-77
2023/03/02 07:12:16;;;;;;;72.72;21.83;;;3.10;99.90;;;;;;6034620;23;103620;-77
2023/03/02 07:14:43;;;;;;;140.45;26.25;;;3.00;99.90;;;;;;6059592;23;92401;-77
2023/03/02 07:17:10;;;;;;;82.28;23.70;;;3.00;99.90;;;;;;6036603;23;92340;-77
2023/03/02 07:19:37;;;;;;;120.95;20.48;;;3.00;99.90;;;;;;6059269;23;93299;-77
2023/03/02 07:22:06;;;;;;;75.55;20.15;;;2.90;99.90;;;;;;6036490;23;93054;-77
2023/03/02 07:24:33;;;;;;;90.25;23.10;;;2.90;99.90;;;;;;6059218;23;92429;-77
2023/03/02 07:27:00;;;;;;;48.67;15.65;;;2.90;99.90;;;;;;6012071;23;92376;-78
2023/03/02 07:29:27;;;;;;;63.10;21.15;;;2.90;99.90;;;;;;6034698;23;96018;-78
2023/03/02 07:31:58;;;;;;;62.33;22.73;;;2.90;99.90;;;;;;6011276;23;93103;-77
2023/03/02 07:34:26;;;;;;;56.70;20.38;;;2.90;99.90;;;;;;6033633;23;94790;-78
2023/03/02 07:36:53;;;;;;;54.50;21.25;;;3.00;99.90;;;;;;6037004;23;92613;-78
2023/03/02 07:39:20;;;;;;;105.60;23.92;;;3.10;99.90;;;;;;6034916;23;95839;-78
2023/03/02 07:41:48;;;;;;;124.18;27.88;;;3.10;99.90;;;;;;6010991;23;101234;-78
2023/03/02 07:44:19;;;;;;;79.40;22.70;;;3.20;99.90;;;;;;6011067;23;92834;-78
2023/03/02 07:46:46;;;;;;;76.20;22.40;;;3.20;99.90;;;;;;6059621;23;92807;-78
2023/03/02 07:49:13;;;;;;;83.15;24.73;;;3.20;99.90;;;;;;6011030;23;93290;-77
2023/03/02 07:51:40;;;;;;;99.30;24.08;;;3.30;99.90;;;;;;6035785;23;93090;-77
2023/03/02 07:54:07;;;;;;;91.78;25.48;;;3.40;99.90;;;;;;6011391;23;92466;-78
2023/03/02 07:56:34;;;;;;;170.13;26.92;;;3.40;99.90;;;;;;6036561;23;92389;-78
2023/03/02 07:59:02;;;;;;;83.05;22.13;;;3.40;99.90;;;;;;6034992;23;96009;-77
2023/03/02 08:01:29;;;;;;;76.78;19.27;;;3.30;99.90;;;;;;6034104;23;95589;-78
2023/03/02 08:03:56;;;;;;;79.70;21.48;;;3.40;99.90;;;;;;6035052;23;100711;-78
2023/03/02 08:06:23;;;;;;;80.97;19.52;;;3.40;99.90;;;;;;6011080;23;92414;-78
2023/03/02 08:08:50;;;;;;;98.80;21.13;;;3.30;99.90;;;;;;6059054;23;94796;-78
2023/03/02 08:11:17;;;;;;;70.03;15.00;;;3.30;99.90;;;;;;6010760;23;93180;-78
2023/03/02 08:13:45;;;;;;;189.73;30.50;;;3.30;99.90;;;;;;6035192;23;92480;-78
2023/03/02 08:16:14;;;;;;;109.63;21.77;;;3.20;99.90;;;;;;6011929;23;91752;-78
2023/03/02 08:18:41;;;;;;;112.22;21.80;;;3.30;99.90;;;;;;6036397;23;100900;-78
2023/03/02 08:21:20;;;;;;;67.15;19.35;;;3.30;99.90;;;;;;6034862;23;92377;-78
2023/03/02 08:23:48;;;;;;;53.45;21.15;;;3.30;99.90;;;;;;6035368;23;94843;-78
2023/03/02 08:26:16;;;;;;;66.50;21.00;;;3.30;99.90;;;;;;6010838;23;93305;-78
2023/03/02 08:28:43;;;;;;;131.88;24.00;;;3.40;99.90;;;;;;6034431;23;95769;-78
2023/03/02 08:31:12;;;;;;;74.95;19.30;;;3.40;99.90;;;;;;6036659;23;92919;-78
2023/03/02 08:33:39;;;;;;;48.60;17.23;;;3.50;99.90;;;;;;6010793;23;92475;-78
2023/03/02 08:36:10;;;;;;;72.28;20.30;;;3.50;99.90;;;;;;6010606;23;92550;-78
2023/03/02 08:38:37;;;;;;;77.18;21.35;;;3.50;99.90;;;;;;6036420;23;92527;-78
2023/03/02 08:41:07;;;;;;;80.72;23.70;;;3.50;99.90;;;;;;6036507;23;92873;-78
2023/03/02 08:43:34;;;;;;;57.00;20.65;;;3.70;99.90;;;;;;6036270;23;92429;-78
2023/03/02 08:46:01;;;;;;;64.38;21.17;;;3.80;99.90;;;;;;6036415;23;92408;-78
2023/03/02 08:48:29;;;;;;;47.72;21.35;;;3.90;99.90;;;;;;6034443;23;96375;-78
2023/03/02 08:51:02;;;;;;;113.68;25.17;;;4.00;99.90;;;;;;6010650;23;95501;-78
2023/03/02 08:53:31;;;;;;;48.05;19.25;;;4.10;99.90;;;;;;6058838;23;92470;-78
2023/03/02 08:55:58;;;;;;;69.07;22.05;;;4.10;99.90;;;;;;6036398;23;92387;-78
2023/03/02 08:58:26;;;;;;;56.05;19.88;;;4.20;99.90;;;;;;6058313;23;96367;-78
2023/03/02 09:00:53;;;;;;;168.70;26.90;;;4.30;99.90;;;;;;6036075;23;93100;-78
2023/03/02 09:03:20;;;;;;;73.22;21.75;;;4.30;99.90;;;;;;6010740;23;92989;-78
2023/03/02 09:05:47;;;;;;;41.75;19.52;;;4.40;99.90;;;;;;6036626;23;91673;-78
2023/03/02 09:08:14;;;;;;;53.35;20.67;;;4.50;99.90;;;;;;6034673;23;94394;-78
2023/03/02 09:10:41;;;;;;;52.33;19.75;;;4.50;99.90;;;;;;6034465;23;92915;-78
2023/03/02 09:13:08;;;;;;;129.10;26.42;;;4.50;99.90;;;;;;6009553;23;95241;-77
2023/03/02 09:15:35;;;;;;;69.65;22.80;;;4.60;99.90;;;;;;6059745;23;92462;-78
2023/03/02 09:18:02;;;;;;;84.80;22.88;;;4.70;99.90;;;;;;6011835;23;93318;-78
2023/03/02 09:20:29;;;;;;;52.25;20.67;;;4.80;99.90;;;;;;6035306;23;95616;-78
2023/03/02 09:22:57;;;;;;;45.03;20.27;;;4.90;99.90;;;;;;6037416;23;92470;-78
2023/03/02 09:25:24;;;;;;;49.55;20.77;;;4.90;99.90;;;;;;6011192;23;92515;-78
2023/03/02 09:27:50;;;;;;;43.78;18.75;;;5.00;99.90;;;;;;6037095;23;92417;-77
2023/03/02 09:30:17;;;;;;;44.92;19.42;;;5.10;99.90;;;;;;6011632;23;104672;-78
2023/03/02 09:32:44;;;;;;;64.20;19.48;;;5.20;99.90;;;;;;6011657;23;92464;-78
2023/03/02 09:35:12;;;;;;;31.90;18.20;;;5.30;99.90;;;;;;6037211;23;92377;-78
2023/03/02 09:37:39;;;;;;;39.22;18.20;;;5.50;99.90;;;;;;6033948;23;98431;-78
2023/03/02 09:40:38;;;;;;;32.50;17.58;;;5.40;99.90;;;;;;6059530;23;95381;-78
2023/03/02 09:43:18;;;;;;;34.15;17.73;;;5.50;99.90;;;;;;6036847;23;92440;-78
2023/03/02 09:46:05;;;;;;;38.70;19.27;;;5.60;99.90;;;;;;6059664;23;92610;-78
2023/03/02 09:49:27;;;;;;;31.38;17.30;;;5.80;99.90;;;;;;6036904;23;93066;-78
2023/03/02 09:52:26;;;;;;;27.02;15.85;;;5.90;99.90;;;;;;6000616;23;95778;-78
2023/03/02 09:54:54;;;;;;;43.63;18.55;;;5.90;99.90;;;;;;6037215;23;92297;-78
2023/03/02 09:57:30;;;;;;;63.30;18.85;;;6.00;99.90;;;;;;6035888;23;91957;-78
2023/03/02 10:00:03;;;;;;;33.28;16.63;;;6.10;99.90;;;;;;6059895;23;95894;-78
2023/03/02 10:02:48;;;;;;;42.83;17.83;;;6.00;99.90;;;;;;6036700;23;93062;-78
2023/03/02 10:05:22;;;;;;;30.25;17.65;;;6.00;99.90;;;;;;6058512;23;94732;-78
2023/03/02 10:07:50;;;;;;;34.55;19.17;;;6.00;99.90;;;;;;6011630;23;92844;-78
2023/03/02 10:10:37;;;;;;;29.70;16.60;;;6.10;99.90;;;;;;6059303;23;95855;-78
2023/03/02 10:13:27;;;;;;;31.80;17.30;;;6.30;99.90;;;;;;6005860;23;94852;-78
2023/03/02 10:15:57;;;;;;;29.25;17.08;;;6.40;99.90;;;;;;6059708;23;92371;-78
2023/03/02 10:18:25;;;;;;;32.95;17.77;;;6.50;99.90;;;;;;6037216;23;92388;-78
2023/03/02 10:21:05;;;;;;;30.92;16.65;;;6.50;99.90;;;;;;6036470;23;93272;-78
2023/03/02 10:23:40;;;;;;;31.35;17.08;;;6.60;99.90;;;;;;6011789;23;93101;-78
2023/03/02 10:26:41;;;;;;;30.92;17.63;;;6.50;99.90;;;;;;6059166;23;92431;-78
2023/03/02 10:29:14;;;;;;;33.95;19.15;;;6.60;99.90;;;;;;6037307;23;92284;-78
2023/03/02 10:31:42;;;;;;;33.10;18.20;;;6.70;99.90;;;;;;6057436;23;98607;-78
2023/03/02 10:34:13;;;;;;;38.50;19.40;;;6.80;99.90;;;;;;6011550;23;95391;-78
2023/03/02 10:36:43;;;;;;;30.77;17.42;;;6.90;99.90;;;;;;6036763;23;92391;-78
2023/03/02 10:39:13;;;;;;;36.58;19.83;;;6.90;99.90;;;;;;6037046;23;92380;-78
2023/03/02 10:42:02;;;;;;;39.65;21.60;;;7.00;99.90;;;;;;6034858;23;96402;-78
2023/03/02 10:44:47;;;;;;;40.03;23.52;;;7.10;99.90;;;;;;6059561;23;95494;-78
2023/03/02 10:47:26;;;;;;;36.33;18.80;;;7.10;99.90;;;;;;6036989;23;92325;-78
2023/03/02 10:49:55;;;;;;;34.30;18.85;;;7.20;99.90;;;;;;6037285;23;91659;-78
2023/03/02 10:52:24;;;;;;;29.27;17.73;;;7.20;99.90;;;;;;6036761;23;93002;-78
2023/03/02 10:55:09;;;;;;;29.70;18.65;;;7.20;99.90;;;;;;6036148;23;94082;-78
2023/03/02 10:57:37;;;;;;;;;;;7.20;99.90;;;;;;6035470;23;94726;-78
2023/03/02 11:00:04;;;;;;;30.92;16.38;;;7.00;99.90;;;;;;6039005;23;94653;-78
2023/03/02 11:02:36;;;;;;;29.77;17.85;;;6.90;99.90;;;;;;6036617;23;93717;-78
2023/03/02 11:05:22;;;;;;;32.38;19.35;;;7.00;99.90;;;;;;6037085;23;92923;-78
2023/03/02 11:08:08;;;;;;;35.55;20.33;;;7.00;99.90;;;;;;6035299;23;92517;-78
2023/03/02 11:10:52;;;;;;;31.60;17.35;;;7.20;99.90;;;;;;6059290;23;92399;-78
2023/03/02 11:13:31;;;;;;;29.98;18.45;;;7.20;99.90;;;;;;6036721;23;93017;-78
2023/03/02 11:16:00;;;;;;;31.30;17.95;;;7.10;99.90;;;;;;6076385;23;95644;-78
2023/03/02 11:18:56;;;;;;;31.13;18.25;;;7.00;99.90;;;;;;6039885;23;92467;-78
2023/03/02 11:21:56;;;;;;;31.10;18.58;;;7.10;99.90;;;;;;6088799;23;92433;-78
2023/03/02 11:24:30;;;;;;;28.92;17.15;;;7.10;99.90;;;;;;6014495;23;95509;-78
2023/03/02 11:27:25;;;;;;;27.05;16.15;;;7.10;99.90;;;;;;6064683;23;95076;-78
2023/03/02 11:29:56;;;;;;;28.27;17.80;;;7.20;99.90;;;;;;6065848;23;92403;-78
2023/03/02 11:32:54;;;;;;;26.50;16.55;;;7.20;99.90;;;;;;6065877;23;92393;-78
2023/03/02 11:35:21;;;;;;;26.98;14.88;;;7.20;99.90;;;;;;6039944;23;95795;-78
2023/03/02 11:37:53;;;;;;;24.35;15.93;;;7.10;99.90;;;;;;6064899;23;92944;-78
2023/03/02 11:40:52;;;;;;;22.13;14.30;;;7.00;99.90;;;;;;6064434;23;92466;-78
2023/03/02 11:43:19;;;;;;;22.88;14.50;;;6.90;99.90;;;;;;6066389;23;92089;-78
2023/03/02 11:45:52;;;;;;;26.05;16.13;;;6.90;99.90;;;;;;6039572;23;93132;-78
2023/03/02 11:48:28;;;;;;;20.10;13.30;;;7.20;99.90;;;;;;6040184;23;92970;-78
2023/03/02 11:51:02;;;;;;;26.27;15.05;;;7.40;99.90;;;;;;6064224;23;94714;-78
2023/03/02 11:53:58;;;;;;;25.50;16.80;;;7.50;99.90;;;;;;6065904;23;92406;-78
2023/03/02 11:56:30;;;;;;;26.05;15.98;;;7.70;99.90;;;;;;6065661;23;93061;-78
2023/03/02 11:59:10;;;;;;;25.77;16.35;;;7.80;99.90;;;;;;6039362;23;95485;-78
2023/03/02 12:01:39;;;;;;;25.70;16.67;;;7.80;99.90;;;;;;6063948;23;92473;-78
2023/03/02 12:04:09;;;;;;;26.13;15.77;;;7.80;99.90;;;;;;6015872;23;92457;-78
2023/03/02 12:06:40;;;;;;;27.02;16.63;;;8.00;99.90;;;;;;6064526;23;92955;-78
2023/03/02 12:09:30;;;;;;;22.38;14.52;;;8.10;99.90;;;;;;6065821;23;93090;-78
2023/03/02 12:12:13;;;;;;;19.88;11.93;;;8.00;99.90;;;;;;6014467;23;92444;-78
2023/03/02 12:14:42;;;;;;;17.33;10.27;;;7.80;99.90;;;;;;6039891;23;92490;-78
2023/03/02 12:17:30;;;;;;;24.17;14.57;;;7.50;99.90;;;;;;6038005;23;102580;-78
2023/03/02 12:20:06;;;;;;;20.50;13.02;;;7.20;99.90;;;;;;6065125;23;95740;-78
2023/03/02 12:22:34;;;;;;;21.38;13.60;;;7.30;99.90;;;;;;6039708;23;92528;-78
2023/03/02 12:25:07;;;;;;;22.30;13.27;;;7.30;99.90;;;;;;6039978;23;92361;-78
2023/03/02 12:27:37;;;;;;;21.73;12.65;;;7.60;99.90;;;;;;6065071;23;93230;-78
2023/03/02 12:30:10;;;;;;;22.48;13.38;;;7.50;99.90;;;;;;6065186;23;93062;-78
2023/03/02 12:32:37;;;;;;;21.88;14.52;;;7.50;99.90;;;;;;6039477;23;92402;-78
2023/03/02 12:35:07;;;;;;;18.63;11.52;;;7.40;99.90;;;;;;6039952;23;91708;-78
2023/03/02 12:37:52;;;;;;;19.25;11.60;;;7.50;99.90;;;;;;6065312;23;93099;-78
2023/03/02 12:40:37;;;;;;;17.58;10.80;;;7.50;99.90;;;;;;6039576;23;95516;-78
2023/03/02 12:43:31;;;;;;;21.15;13.30;;;7.30;99.90;;;;;;6063768;23;94729;-78
2023/03/02 12:46:22;;;;;;;16.87;9.70;;;7.30;99.90;;;;;;6065445;23;92454;-78
2023/03/02 12:49:20;;;;;;;19.58;12.20;;;7.20;99.90;;;;;;6065793;23;93371;-78
2023/03/02 12:51:53;;;;;;;15.60;9.27;;;7.20;99.90;;;;;;6024651;23;93149;-78
2023/03/02 12:54:23;;;;;;;16.38;10.57;;;7.20;99.90;;;;;;6066472;23;93019;-78
2023/03/02 12:57:02;;;;;;;17.77;11.55;;;7.10;99.90;;;;;;6065446;23;92446;-78